Hlavní strana
METAR-TAF:

METAR-TAF

Letiště :

Arvidsjaur, Švédsko

zeměpisná šířka: 65-35-25N, zeměpisná délka: 019-16-55E, výška: 379 m

Aktuální stav počasí

Zpráva byla vytvořena před 23 minutami, v 09:50 UTC
Západní vítr 21 kt s nárazy do 38 kt
Teplota 3°C
Vlhkost vzduchu 52%
Tlak 990 hPa
Viditelnost 10 km a více

METAR: ESNX 160950Z AUTO 26021G38KT 9999 NCD 03/M06 Q0990

Čas: 11:13 (10:13 UTC)

Předpověď počasí

Zpráva byla vytvořena před 16 hodinami a 43 minutami, v 17:30 UTC
Předpověď platná od 15 v 18 UTC do 15 v 22 UTC
Jihojihozápadní vítr 8 kt
Viditelnost 10 km a více
Oblačno až skoro zataženo ve výšce 4000 ft
Pravděpodobnost 40%
od 15 v 18 UTC do 15 v 20 UTC
Viditelnost: 3000 m
Oblačno až skoro zataženo ve výšce 1200 ft
sníh, déšť
Pravděpodobnost 40%
od 15 v 20 UTC do 15 v 22 UTC
Viditelnost: 2000 m
Oblačno až skoro zataženo ve výšce 400 ft
kouřmo

TAF: ESNX 151730Z 1518/1522 20008KT 9999 BKN040 PROB40 1518/1520 3000 SNRA BKN012 PROB40 1520/1522 2000 BR BKN004

Stav a předpovědi počasí z více než 4 000 letišť (zprávy METAR a TAF).

Červené a žluté tečky na mapě představují dostupné meteorologické stanice.

Když kurzor umístíte na tečku, zobrazí se název stanice.

Pak kliknutím zobrazíte stav a předpověď počasí.

Chcete-li změnit mapu, kliknutím na zelené tlačítko se znaménkem +mapu přiblížíte, kliknutím na zelené tlačítko se znaménkem – mapu oddálíte a kliknutím na zelené šipky přejdete na sousední mapy.


METAR-TAF: